createdAt,value
2018-09-04T00:04:39.117Z,11.60
2018-09-04T00:09:41.339Z,10.77
2018-09-04T00:14:43.646Z,10.63
2018-09-04T00:19:46.993Z,10.93
2018-09-04T00:24:49.406Z,10.90
2018-09-04T00:29:51.569Z,11.00
2018-09-04T00:34:53.709Z,10.93
2018-09-04T00:39:56.343Z,11.27
2018-09-04T00:44:58.685Z,10.63
2018-09-04T00:50:03.274Z,12.30
2018-09-04T00:55:05.727Z,14.57
2018-09-04T01:00:08.169Z,17.27
2018-09-04T01:05:10.453Z,17.70
2018-09-04T01:10:12.639Z,19.33
2018-09-04T01:15:14.778Z,17.80
2018-09-04T01:20:17.662Z,18.30
2018-09-04T01:25:20.022Z,18.03
2018-09-04T01:30:22.219Z,19.37
2018-09-04T01:35:26.690Z,20.20
2018-09-04T01:40:29.436Z,19.87
2018-09-04T01:45:32.930Z,19.80
2018-09-04T01:50:37.914Z,20.57
2018-09-04T01:55:42.549Z,21.80
2018-09-04T02:00:44.917Z,20.20
2018-09-04T02:05:50.334Z,20.13
2018-09-04T02:10:52.823Z,19.27
2018-09-04T02:15:57.051Z,20.00
2018-09-04T02:20:59.428Z,20.77
2018-09-04T02:26:01.589Z,20.67
2018-09-04T02:31:03.745Z,19.90
2018-09-04T02:36:05.900Z,20.00
2018-09-04T02:41:09.800Z,20.77
2018-09-04T02:46:12.089Z,20.63
2018-09-04T02:51:15.885Z,20.07
2018-09-04T02:56:18.306Z,19.53
2018-09-04T03:01:22.300Z,19.90
2018-09-04T03:06:24.585Z,19.60
2018-09-04T03:11:31.493Z,21.17
2018-09-04T03:16:36.693Z,21.17
2018-09-04T03:21:39.668Z,20.77
2018-09-04T03:26:42.173Z,20.83
2018-09-04T03:31:44.329Z,24.73
2018-09-04T03:36:46.512Z,24.77
2018-09-04T03:41:48.657Z,25.40
2018-09-04T03:46:53.937Z,25.50
2018-09-04T03:51:56.204Z,28.10
2018-09-04T03:56:59.859Z,29.90
2018-09-04T04:02:02.206Z,27.20
2018-09-04T04:07:04.390Z,28.17
2018-09-04T04:12:06.628Z,28.13
2018-09-04T04:17:08.854Z,30.57
2018-09-04T04:22:10.986Z,30.73
2018-09-04T04:27:13.125Z,31.93
2018-09-04T04:32:15.326Z,31.80
2018-09-04T04:37:20.414Z,32.70
2018-09-04T04:42:22.838Z,31.50
2018-09-04T04:47:31.706Z,31.27
2018-09-04T04:52:34.769Z,33.07
2018-09-04T04:57:38.188Z,30.83
2018-09-04T05:02:40.538Z,31.27
2018-09-04T05:07:42.682Z,32.83
2018-09-04T05:12:45.190Z,29.53
2018-09-04T05:17:47.951Z,32.07
2018-09-04T05:22:50.374Z,32.83
2018-09-04T05:27:52.454Z,31.20
2018-09-04T05:33:00.802Z,31.43
2018-09-04T05:38:04.093Z,32.90
2018-09-04T05:43:11.534Z,29.40
2018-09-04T05:48:17.650Z,29.00
2018-09-04T05:53:21.393Z,31.60
2018-09-04T05:58:24.424Z,30.60
2018-09-04T06:03:26.706Z,32.27
2018-09-04T06:08:28.887Z,30.60
2018-09-04T06:13:31.165Z,30.20
2018-09-04T06:18:33.272Z,28.20
2018-09-04T06:23:35.431Z,27.93
2018-09-04T06:28:37.611Z,23.80
2018-09-04T06:33:39.768Z,23.60
2018-09-04T06:38:43.522Z,22.73
2018-09-04T06:43:46.026Z,22.60
2018-09-04T06:48:48.159Z,22.83
2018-09-04T06:53:52.522Z,21.67
2018-09-04T06:58:56.909Z,21.90
2018-09-04T07:03:59.058Z,20.57
2018-09-04T07:09:04.265Z,19.90
2018-09-04T07:14:07.734Z,21.90
2018-09-04T07:19:15.601Z,17.70
2018-09-04T07:24:18.705Z,15.87
2018-09-04T07:29:22.343Z,14.67
2018-09-04T07:34:24.545Z,13.90
2018-09-04T07:39:26.701Z,14.50
2018-09-04T07:44:29.443Z,12.33
2018-09-04T07:49:31.614Z,14.57
2018-09-04T07:54:34.453Z,17.13
2018-09-04T07:59:36.841Z,17.77
2018-09-04T08:04:39.635Z,17.10
2018-09-04T08:09:41.894Z,16.30
2018-09-04T08:14:44.094Z,14.50
2018-09-04T08:19:46.354Z,13.27
2018-09-04T08:24:48.685Z,14.30
2018-09-04T08:29:50.829Z,15.00
2018-09-04T08:34:52.966Z,15.43
2018-09-04T08:39:55.270Z,13.73
2018-09-04T08:44:57.514Z,12.33
2018-09-04T08:50:01.540Z,12.30
2018-09-04T08:55:04.290Z,10.93
2018-09-04T09:00:06.471Z,10.27
2018-09-04T09:05:08.630Z,10.60
2018-09-04T09:10:11.995Z,8.90
2018-09-04T09:15:14.502Z,10.50
2018-09-04T09:20:16.728Z,10.00
2018-09-04T09:25:18.894Z,10.10
2018-09-04T09:30:21.522Z,11.10
2018-09-04T09:35:23.662Z,8.97
2018-09-04T09:40:25.821Z,10.77
2018-09-04T09:45:27.978Z,8.80
2018-09-04T09:50:30.308Z,8.90
2018-09-04T09:55:32.585Z,9.60
2018-09-04T10:00:40.631Z,7.80
2018-09-04T10:05:43.275Z,7.97
2018-09-04T10:10:45.646Z,6.80
2018-09-04T10:15:47.890Z,6.20
2018-09-04T10:20:50.043Z,5.60
2018-09-04T10:25:53.258Z,6.40
2018-09-04T10:30:55.923Z,6.47
2018-09-04T10:35:58.187Z,6.63
2018-09-04T10:41:01.494Z,7.53
2018-09-04T10:46:08.073Z,6.87
2018-09-04T10:51:10.230Z,6.30
2018-09-04T10:56:12.480Z,6.70
2018-09-04T11:01:14.879Z,7.10
2018-09-04T11:06:18.089Z,6.63
2018-09-04T11:11:20.273Z,6.03
2018-09-04T11:16:22.468Z,6.33
2018-09-04T11:21:24.840Z,6.73
2018-09-04T11:26:27.073Z,6.30
2018-09-04T11:31:29.426Z,6.37
2018-09-04T11:36:32.634Z,6.00
2018-09-04T11:41:36.204Z,5.67
2018-09-04T11:46:39.819Z,6.63
2018-09-04T11:51:42.102Z,7.00
2018-09-04T11:56:44.972Z,5.73
2018-09-04T12:01:51.229Z,6.10
2018-09-04T12:06:53.725Z,6.20
2018-09-04T12:11:56.198Z,5.50
2018-09-04T12:16:58.386Z,5.70
2018-09-04T12:22:01.071Z,6.23
2018-09-04T12:27:04.110Z,6.13
2018-09-04T12:32:06.581Z,5.90
2018-09-04T12:37:08.793Z,6.20
2018-09-04T12:42:10.973Z,6.20
2018-09-04T12:47:13.985Z,6.10
2018-09-04T12:52:16.992Z,5.73
2018-09-04T12:57:20.031Z,6.17
2018-09-04T13:02:22.361Z,7.53
2018-09-04T13:07:24.518Z,7.63
2018-09-04T13:12:27.425Z,7.23
2018-09-04T13:17:30.267Z,6.90
2018-09-04T13:22:33.302Z,6.67
2018-09-04T13:27:35.462Z,7.10
2018-09-04T13:32:38.107Z,6.77
2018-09-04T13:37:40.430Z,7.17
2018-09-04T13:42:42.968Z,6.83
2018-09-04T13:47:45.409Z,7.63
2018-09-04T13:52:47.742Z,8.03
2018-09-04T13:57:50.013Z,8.77
2018-09-04T14:02:52.363Z,8.73
2018-09-04T14:07:54.802Z,8.80
2018-09-04T14:12:57.546Z,9.30
2018-09-04T14:18:01.813Z,8.63
2018-09-04T14:23:04.181Z,11.93
2018-09-04T14:28:07.436Z,8.27
2018-09-04T14:33:09.914Z,8.67
2018-09-04T14:38:12.394Z,8.33
2018-09-04T14:43:14.625Z,8.27
2018-09-04T14:48:16.772Z,8.33
2018-09-04T14:53:18.990Z,9.70
2018-09-04T14:58:21.331Z,8.43
2018-09-04T15:03:23.808Z,9.50
2018-09-04T15:08:26.382Z,7.70
2018-09-04T15:13:31.533Z,9.23
2018-09-04T15:18:33.861Z,9.33
2018-09-04T15:23:36.265Z,10.20
2018-09-04T15:28:39.729Z,10.10
2018-09-04T15:33:42.194Z,10.50
2018-09-04T15:38:44.766Z,10.40
2018-09-04T15:43:47.446Z,10.53
2018-09-04T15:48:55.491Z,11.13
2018-09-04T15:53:58.099Z,10.70
2018-09-04T15:59:00.550Z,10.70
2018-09-04T16:04:02.706Z,10.80
2018-09-04T16:09:05.381Z,10.47
2018-09-04T16:14:07.687Z,9.97
2018-09-04T16:19:10.081Z,10.50
2018-09-04T16:24:12.528Z,10.77
2018-09-04T16:29:14.826Z,10.77
2018-09-04T16:34:17.283Z,10.33
2018-09-04T16:39:19.583Z,9.83
2018-09-04T16:44:21.870Z,9.00
2018-09-04T16:49:25.283Z,8.40
2018-09-04T16:54:27.917Z,8.90
2018-09-04T16:59:30.260Z,8.60
2018-09-04T17:04:32.569Z,7.63
2018-09-04T17:09:34.757Z,7.90
2018-09-04T17:14:36.890Z,8.30
2018-09-04T17:19:39.062Z,8.70
2018-09-04T17:24:41.227Z,8.13
2018-09-04T17:30:15.214Z,9.13
2018-09-04T17:35:17.774Z,11.07
2018-09-04T17:40:20.002Z,10.60
2018-09-04T17:45:28.887Z,10.60
2018-09-04T17:50:31.215Z,10.33
2018-09-04T17:55:33.358Z,11.00
2018-09-04T18:00:35.700Z,10.90
2018-09-04T18:05:38.421Z,10.90
2018-09-04T18:10:40.733Z,11.47
2018-09-04T18:15:42.896Z,10.77
2018-09-04T18:20:45.034Z,10.87
2018-09-04T18:25:47.269Z,10.47
2018-09-04T18:30:49.671Z,10.40
2018-09-04T18:35:51.855Z,10.77
2018-09-04T18:40:54.896Z,10.67
2018-09-04T18:45:57.165Z,10.23
2018-09-04T18:50:59.438Z,10.53
2018-09-04T18:56:01.598Z,10.67
2018-09-04T19:01:04.112Z,9.70
2018-09-04T19:06:06.343Z,9.90
2018-09-04T19:11:08.664Z,10.17
2018-09-04T19:16:10.885Z,10.63
2018-09-04T19:21:13.019Z,11.60
2018-09-04T19:26:15.398Z,12.20
2018-09-04T19:31:17.913Z,13.40
2018-09-04T19:36:21.825Z,12.40
2018-09-04T19:41:24.238Z,11.90
2018-09-04T19:46:26.397Z,11.53
2018-09-04T19:51:28.550Z,11.90
2018-09-04T19:56:30.757Z,12.77
2018-09-04T20:01:34.158Z,12.90
2018-09-04T20:06:36.818Z,12.30
2018-09-04T20:11:39.474Z,12.53
2018-09-04T20:16:42.576Z,12.43
2018-09-04T20:21:45.539Z,13.30
2018-09-04T20:26:48.018Z,12.80
2018-09-04T20:31:50.341Z,12.70
2018-09-04T20:36:53.665Z,12.80
2018-09-04T20:41:56.212Z,12.50
2018-09-04T20:47:00.129Z,13.10
2018-09-04T20:52:02.446Z,12.77
2018-09-04T20:57:39.766Z,13.07
2018-09-04T21:02:54.717Z,14.97
2018-09-04T21:08:15.237Z,13.93
2018-09-04T21:13:18.503Z,12.87
2018-09-04T21:18:23.389Z,13.23
2018-09-04T21:23:27.367Z,14.40
2018-09-04T21:28:29.545Z,13.67
2018-09-04T21:33:33.733Z,13.67
2018-09-04T21:38:37.538Z,14.27
2018-09-04T21:43:41.822Z,14.80
2018-09-04T21:48:45.389Z,14.77
2018-09-04T21:53:49.792Z,14.40
2018-09-04T21:58:52.173Z,15.03
2018-09-04T22:03:54.310Z,13.77
2018-09-04T22:08:56.711Z,13.70
2018-09-04T22:13:59.149Z,13.10
2018-09-04T22:19:01.332Z,13.93
2018-09-04T22:24:03.514Z,14.60
2018-09-04T22:29:07.476Z,14.00
2018-09-04T22:34:09.816Z,15.00
2018-09-04T22:39:12.462Z,14.33
2018-09-04T22:44:14.782Z,13.93
2018-09-04T22:49:16.989Z,14.60
2018-09-04T22:54:19.277Z,15.10
2018-09-04T22:59:21.433Z,14.17
2018-09-04T23:04:24.149Z,13.93
2018-09-04T23:09:29.316Z,15.63
2018-09-04T23:14:33.445Z,15.00
2018-09-04T23:19:37.548Z,15.73
2018-09-04T23:24:41.643Z,14.80
2018-09-04T23:29:45.903Z,13.83
2018-09-04T23:34:48.402Z,14.57
2018-09-04T23:39:50.561Z,13.87
2018-09-04T23:44:53.409Z,14.63
2018-09-04T23:49:56.974Z,14.80
2018-09-04T23:55:00.321Z,14.43
